Time;durP1;ratioP1;P1;durP2;ratioP2;P2;SDS_P1;SDS_P2;PMS_P1;PMS_P2;Temp;Humidity;BMP_temperature;BMP_pressure;BME280_temperature;BME280_humidity;BME280_pressure;Samples;Min_cycle;Max_cycle;Signal;HPM_P1;HPM_P2
2022/06/22 00:00:37;;;;;;;10.32;5.57;;;;;;;9.95;51.91;101432.47;5004976;28;20057;-78
2022/06/22 00:03:09;;;;;;;5.72;4.70;;;;;;;9.93;52.13;101434.25;4990545;28;20049;-80
2022/06/22 00:05:43;;;;;;;5.22;2.95;;;;;;;9.90;51.84;101429.09;5009248;28;20034;-81
2022/06/22 00:08:15;;;;;;;6.63;5.15;;;;;;;10.00;51.59;101433.19;5004427;28;20042;-79
2022/06/22 00:11:03;;;;;;;7.68;5.38;;;;;;;9.95;51.75;101432.47;5006296;28;20038;-79
2022/06/22 00:13:29;;;;;;;8.93;5.45;;;;;;;9.82;51.66;101431.94;4988210;28;20396;-79
2022/06/22 00:16:03;;;;;;;14.75;6.35;;;;;;;9.63;52.10;101441.13;5019944;28;20136;-77
2022/06/22 00:18:48;;;;;;;7.43;5.30;;;;;;;9.62;52.47;101442.03;5009403;28;20049;-80
2022/06/22 00:21:27;;;;;;;5.95;4.65;;;;;;;9.70;52.17;101429.63;5009186;28;20064;-79
2022/06/22 00:23:56;;;;;;;13.57;6.88;;;;;;;9.85;51.63;101431.00;5003979;28;20064;-81
2022/06/22 00:26:24;;;;;;;8.80;5.72;;;;;;;9.82;51.54;101425.88;5005247;28;20097;-79
2022/06/22 00:29:09;;;;;;;8.63;5.15;;;;;;;9.79;51.56;101427.66;5006598;28;20064;-81
2022/06/22 00:31:48;;;;;;;7.15;5.25;;;;;;;9.75;51.78;101425.16;5003815;28;20034;-82
2022/06/22 00:34:23;;;;;;;11.15;7.60;;;;;;;9.85;52.34;101433.59;5005958;28;20584;-80
2022/06/22 00:37:05;;;;;;;8.82;6.28;;;;;;;9.82;52.02;101436.31;4984490;28;20034;-80
2022/06/22 00:39:30;;;;;;;;;;;;;;;9.80;52.52;101433.75;5019540;28;20112;-81
2022/06/22 00:42:00;;;;;;;8.60;5.50;;;;;;;9.82;52.22;101436.31;5004072;28;19988;-80
2022/06/22 00:44:29;;;;;;;7.30;6.07;;;;;;;9.76;51.93;101437.28;5006519;28;20037;-79
2022/06/22 00:47:07;;;;;;;12.52;5.95;;;;;;;9.71;52.22;101440.03;5005961;28;20121;-79
2022/06/22 00:49:34;;;;;;;11.32;6.65;;;;;;;9.55;52.27;101443.97;4987029;28;20065;-81
2022/06/22 00:52:05;;;;;;;11.10;5.95;;;;;;;9.49;52.57;101449.34;5004208;28;20026;-80
2022/06/22 00:54:33;;;;;;;11.10;5.90;;;;;;;9.55;52.87;101451.78;5002902;28;20113;-79
2022/06/22 00:57:11;;;;;;;8.30;5.85;;;;;;;9.46;52.61;101450.28;4998951;28;20037;-77
2022/06/22 00:59:44;;;;;;;12.50;6.50;;;;;;;9.34;52.44;101440.16;5000665;28;20049;-80
2022/06/22 01:02:39;;;;;;;9.38;5.63;;;;;;;9.17;52.63;101436.22;5003797;28;20057;-80
2022/06/22 01:05:30;;;;;;;10.90;6.65;;;;;;;8.82;53.08;101433.63;5004459;28;20034;-77
2022/06/22 01:08:24;;;;;;;9.52;5.90;;;;;;;8.82;53.41;101439.69;5002770;28;20038;-80
2022/06/22 01:10:57;;;;;;;9.25;5.95;;;;;;;8.92;52.97;101438.59;4987223;28;20033;-80
2022/06/22 01:13:41;;;;;;;11.20;6.15;;;;;;;8.85;53.31;101436.16;4987550;28;20480;-80
2022/06/22 01:16:34;;;;;;;14.68;7.88;;;;;;;8.72;53.35;101435.59;5007118;28;20037;-81
2022/06/22 01:19:16;;;;;;;10.77;7.00;;;;;;;8.51;53.83;101435.13;4996947;28;20049;-79
2022/06/22 01:21:48;;;;;;;8.68;6.00;;;;;;;8.52;54.09;101431.66;5004034;28;20061;-81
2022/06/22 01:24:33;;;;;;;12.43;7.97;;;;;;;8.42;54.25;101432.75;5005435;28;20026;-80
2022/06/22 01:27:39;;;;;;;10.68;5.60;;;;;;;8.35;54.23;101428.56;4985636;28;20053;-79
2022/06/22 01:30:29;;;;;;;10.05;5.93;;;;;;;8.32;54.47;101428.66;5020061;28;20060;-81
2022/06/22 01:32:55;;;;;;;8.68;5.32;;;;;;;8.40;54.58;101431.06;5005359;28;20116;-81
2022/06/22 01:35:25;;;;;;;6.05;4.82;;;;;;;8.47;54.44;101436.13;5003347;28;20041;-80
2022/06/22 01:37:51;;;;;;;9.43;5.55;;;;;;;8.60;53.99;101435.84;5001828;28;20847;-80
2022/06/22 01:40:23;;;;;;;11.90;6.65;;;;;;;8.65;53.67;101433.97;5003967;28;20034;-78
2022/06/22 01:42:48;;;;;;;8.45;4.75;;;;;;;8.63;53.31;101427.94;5003935;28;20468;-79
2022/06/22 01:45:20;;;;;;;10.23;6.47;;;;;;;8.70;53.07;101434.75;5005237;28;20033;-81
2022/06/22 01:47:54;;;;;;;8.63;5.50;;;;;;;8.64;53.52;101427.06;4989328;28;20053;-79
2022/06/22 01:50:32;;;;;;;9.43;5.75;;;;;;;8.70;53.11;101432.13;4983697;28;20033;-81
2022/06/22 01:53:10;;;;;;;9.18;5.47;;;;;;;8.53;52.94;101420.34;5001549;28;20129;-79
2022/06/22 01:55:44;;;;;;;7.30;4.80;;;;;;;8.35;53.44;101416.38;4988600;28;20044;-80
2022/06/22 01:58:19;;;;;;;9.15;5.72;;;;;;;8.26;53.83;101424.41;5000205;28;20042;-81
2022/06/22 02:00:59;;;;;;;6.28;4.65;;;;;;;8.33;53.45;101417.31;5004304;28;20044;-81
2022/06/22 02:03:36;;;;;;;7.38;4.88;;;;;;;8.39;53.20;101417.19;4981963;28;20128;-81
2022/06/22 02:09:04;;;;;;;8.80;5.43;;;;;;;8.29;53.31;101421.75;5001765;28;20519;-84
2022/06/22 02:11:36;;;;;;;7.22;4.75;;;;;;;8.18;53.38;101417.66;5021673;28;20033;-81
2022/06/22 02:14:09;;;;;;;4.38;3.33;;;;;;;8.24;53.59;101427.94;4947802;28;20150;-79
2022/06/22 02:16:37;;;;;;;7.13;5.68;;;;;;;8.08;53.37;101432.63;5003829;28;20329;-79
2022/06/22 02:19:03;;;;;;;10.50;4.88;;;;;;;7.92;53.40;101426.88;4986837;28;20091;-81
2022/06/22 02:21:58;;;;;;;5.97;3.70;;;;;;;7.62;53.36;101418.75;5005842;28;20116;-80
2022/06/22 02:24:34;;;;;;;4.22;3.60;;;;;;;7.55;53.92;101414.56;5005016;28;20169;-81
2022/06/22 02:27:20;;;;;;;4.45;3.28;;;;;;;7.54;54.13;101415.41;5003530;28;20026;-80
2022/06/22 02:30:06;;;;;;;7.30;3.78;;;;;;;7.60;54.17;101425.75;5002709;28;20081;-75
2022/06/22 02:40:01;;;;;;;4.88;3.70;;;;;;;7.72;54.28;101420.31;4985967;28;20042;-77
2022/06/22 02:45:14;;;;;;;6.82;4.50;;;;;;;7.81;54.44;101434.03;4999139;28;20400;-80
2022/06/22 02:47:58;;;;;;;7.35;4.38;;;;;;;7.79;54.32;101435.81;5002014;28;20061;-79
2022/06/22 02:50:35;;;;;;;7.13;4.95;;;;;;;7.92;53.66;101437.28;4998381;28;20092;-78
2022/06/22 02:53:25;;;;;;;9.15;5.78;;;;;;;7.98;53.78;101431.97;5000207;28;20065;-78
2022/06/22 02:55:52;;;;;;;8.93;6.05;;;;;;;7.97;53.78;101434.59;5001485;28;20484;-79
2022/06/22 02:58:37;;;;;;;9.10;5.70;;;;;;;8.02;54.14;101433.59;4997465;28;20038;-78
2022/06/22 03:01:25;;;;;;;23.60;6.20;;;;;;;7.83;54.25;101427.91;4996588;28;20446;-78
2022/06/22 03:04:02;;;;;;;8.77;5.72;;;;;;;7.96;54.57;101423.31;4982185;28;20157;-77
2022/06/22 03:06:33;;;;;;;8.93;6.10;;;;;;;8.04;54.06;101428.34;5002272;28;20416;-80
2022/06/22 03:09:02;;;;;;;11.80;6.18;;;;;;;7.90;54.08;101428.63;4997509;28;20369;-78
2022/06/22 03:11:28;;;;;;;10.75;6.60;;;;;;;7.95;54.76;101437.19;4985187;28;20121;-80
2022/06/22 03:14:25;;;;;;;9.88;5.75;;;;;;;8.02;54.82;101444.00;4999098;28;20133;-79
2022/06/22 03:16:58;;;;;;;8.20;5.70;;;;;;;8.12;54.47;101445.53;5006457;28;20050;-80
2022/06/22 03:19:31;;;;;;;8.75;5.50;;;;;;;8.14;54.50;101443.75;5001256;28;20026;-79
2022/06/22 03:21:56;;;;;;;7.75;5.88;;;;;;;8.20;54.36;101453.19;5000902;28;20806;-79
2022/06/22 03:24:32;;;;;;;8.52;4.90;;;;;;;8.12;54.40;101449.91;5003975;28;20389;-78
2022/06/22 03:27:08;;;;;;;6.07;4.13;;;;;;;8.17;54.63;101457.59;4999455;28;20435;-77
2022/06/22 03:29:40;;;;;;;5.28;3.55;;;;;;;8.26;54.20;101452.19;5001449;28;20030;-78
2022/06/22 03:32:25;;;;;;;5.90;4.37;;;;;;;8.14;53.81;101454.19;5000364;28;20654;-78
2022/06/22 03:35:00;;;;;;;6.70;5.15;;;;;;;7.91;53.66;101454.66;5000779;28;20042;-75
2022/06/22 03:37:47;;;;;;;6.40;4.70;;;;;;;8.00;54.39;101452.72;5001585;28;20062;-75
2022/06/22 03:40:19;;;;;;;7.97;5.20;;;;;;;8.14;54.57;101455.94;5019201;28;20029;-77
2022/06/22 03:42:50;;;;;;;7.95;5.28;;;;;;;8.22;54.22;101461.81;4986426;28;20599;-79
2022/06/22 03:45:35;;;;;;;7.73;4.30;;;;;;;8.34;53.91;101465.94;5004091;28;20034;-78
2022/06/22 03:48:12;;;;;;;8.38;5.13;;;;;;;8.43;54.14;101460.53;5017651;28;20362;-78
2022/06/22 03:51:23;;;;;;;8.82;5.63;;;;;;;8.51;53.82;101463.78;5014800;28;20087;-78
2022/06/22 03:53:56;;;;;;;9.77;6.32;;;;;;;8.53;53.84;101462.03;4989329;28;20835;-78
2022/06/22 03:56:26;;;;;;;10.80;6.50;;;;;;;8.50;53.58;101456.88;4997989;28;20179;-78
2022/06/22 03:58:53;;;;;;;8.57;6.63;;;;;;;8.48;53.71;101452.59;4969599;28;20046;-78
2022/06/22 04:01:37;;;;;;;10.32;6.93;;;;;;;8.59;53.77;101466.25;5013327;28;20089;-78
2022/06/22 04:04:03;;;;;;;12.10;7.35;;;;;;;8.64;53.51;101464.38;4995467;28;20053;-77
2022/06/22 04:06:33;;;;;;;11.90;8.13;;;;;;;8.74;54.00;101462.47;5029012;28;20028;-77
2022/06/22 04:09:07;;;;;;;9.10;6.68;;;;;;;8.80;53.79;101464.06;4983271;28;20077;-77
2022/06/22 04:11:47;;;;;;;12.02;7.00;;;;;;;8.83;53.43;101464.88;5012491;28;20100;-76
2022/06/22 04:14:19;;;;;;;10.68;6.00;;;;;;;8.98;53.34;101474.94;5008181;28;20046;-78
2022/06/22 04:16:52;;;;;;;10.95;6.82;;;;;;;9.13;53.44;101462.41;5011012;28;20038;-77
2022/06/22 04:19:40;;;;;;;15.57;8.43;;;;;;;9.22;52.68;101466.56;5013691;28;20038;-77
2022/06/22 04:22:11;;;;;;;12.77;6.93;;;;;;;9.28;53.29;101464.66;5027790;28;20049;-76
2022/06/22 04:24:46;;;;;;;13.55;7.35;;;;;;;9.41;52.73;101462.59;5027739;28;20029;-77
2022/06/22 04:27:38;;;;;;;11.27;7.15;;;;;;;9.62;53.28;101455.94;5001958;28;20049;-78
2022/06/22 04:30:16;;;;;;;9.23;7.03;;;;;;;9.79;53.30;101460.72;5022095;28;20038;-78
2022/06/22 04:33:00;;;;;;;11.60;7.15;;;;;;;10.09;52.90;101464.25;5001058;28;20034;-78
2022/06/22 04:35:32;;;;;;;12.25;8.13;;;;;;;10.21;52.37;101461.31;5006794;28;20053;-80
2022/06/22 04:38:12;;;;;;;14.27;8.35;;;;;;;10.37;52.66;101460.81;5008388;28;20033;-78
2022/06/22 04:41:33;;;;;;;12.40;8.88;;;;;;;10.37;51.86;101456.47;5000311;28;20050;-80
2022/06/22 04:44:46;;;;;;;14.48;9.95;;;;;;;10.66;52.29;101462.56;4976206;28;20146;-77
2022/06/22 04:55:54;;;;;;;13.38;8.90;;;;;;;11.01;52.73;101453.63;5002388;28;20041;-74
2022/06/22 04:59:08;;;;;;;17.58;9.25;;;;;;;11.21;53.22;101439.03;4973146;28;20038;-79
2022/06/22 05:02:23;;;;;;;14.82;10.20;;;;;;;11.44;52.51;101435.63;4946058;28;20030;-77
2022/06/22 05:05:12;;;;;;;10.48;7.50;;;;;;;11.88;52.95;101436.69;4970112;28;20037;-78
2022/06/22 05:09:09;;;;;;;14.85;9.93;;;;;;;13.14;50.41;101433.56;4971816;28;20092;-80
2022/06/22 05:12:25;;;;;;;12.98;7.88;;;;;;;16.60;44.03;101414.00;4965104;28;20086;-77
2022/06/22 05:15:04;;;;;;;9.48;6.97;;;;;;;18.95;39.21;101411.94;4986103;28;20050;-75
2022/06/22 05:21:42;;;;;;;11.82;6.90;;;;;;;22.24;31.10;101401.75;5020019;28;20045;-77
2022/06/22 05:28:15;;;;;;;9.32;5.78;;;;;;;23.66;28.80;101384.53;5017820;28;20055;-77
2022/06/22 05:31:13;;;;;;;5.63;4.15;;;;;;;24.17;26.70;101388.91;5033154;28;20041;-80
2022/06/22 05:34:09;;;;;;;8.57;3.92;;;;;;;24.60;25.81;101380.50;5009346;28;20145;-76
2022/06/22 05:37:11;;;;;;;10.00;4.95;;;;;;;24.25;27.67;101389.03;4991292;28;20046;-76
2022/06/22 05:39:42;;;;;;;4.55;3.80;;;;;;;24.31;27.13;101382.31;5031089;28;20045;-78
2022/06/22 05:42:53;;;;;;;6.25;4.90;;;;;;;25.01;26.29;101383.00;5023711;28;20068;-78
2022/06/22 05:45:51;;;;;;;6.95;3.20;;;;;;;24.98;25.42;101378.78;5035795;28;20049;-76
2022/06/22 05:48:25;;;;;;;5.93;4.22;;;;;;;25.43;24.73;101383.41;5014465;28;20053;-76
2022/06/22 05:51:41;;;;;;;4.65;3.30;;;;;;;25.62;25.13;101381.66;5017162;28;20091;-76
2022/06/22 05:54:52;;;;;;;5.82;3.17;;;;;;;26.45;23.57;101384.28;4966339;28;20205;-80
2022/06/22 05:57:36;;;;;;;7.53;3.33;;;;;;;26.70;23.25;101388.84;4979148;28;20053;-82
2022/06/22 06:00:09;;;;;;;3.38;2.10;;;;;;;27.01;24.35;101390.25;5002617;28;20523;-78
2022/06/22 06:03:02;;;;;;;5.93;2.55;;;;;;;27.02;23.09;101389.25;5002830;28;20447;-77
2022/06/22 06:05:35;;;;;;;7.83;3.10;;;;;;;26.72;23.91;101396.75;5000755;28;20018;-79
2022/06/22 06:08:19;;;;;;;5.40;3.22;;;;;;;26.73;23.16;101405.63;5009683;28;20056;-76
2022/06/22 06:10:50;;;;;;;7.13;3.10;;;;;;;27.08;23.10;101394.81;5017226;28;20029;-78
2022/06/22 06:14:14;;;;;;;3.53;2.55;;;;;;;27.27;23.11;101391.13;5019149;28;20042;-76
2022/06/22 06:16:47;;;;;;;5.50;3.42;;;;;;;27.18;23.02;101393.91;5020305;28;20030;-77
2022/06/22 06:19:24;;;;;;;4.35;2.80;;;;;;;26.99;23.80;101387.72;5013808;28;20046;-75
2022/06/22 06:22:24;;;;;;;7.47;3.80;;;;;;;26.82;24.79;101397.47;5007277;28;20045;-77
2022/06/22 06:28:28;;;;;;;5.65;3.58;;;;;;;28.02;22.52;101400.31;4980265;28;20045;-76
2022/06/22 06:31:05;;;;;;;5.13;2.85;;;;;;;27.91;21.98;101410.34;5010888;28;20034;-79
2022/06/22 06:33:36;;;;;;;4.35;2.00;;;;;;;29.20;21.68;101411.66;5002959;28;20049;-78
2022/06/22 06:36:25;;;;;;;5.70;2.75;;;;;;;30.23;19.87;101413.41;5016217;28;20038;-77
2022/06/22 06:39:02;;;;;;;5.25;2.38;;;;;;;28.97;21.39;101422.28;4959535;28;20046;-78
2022/06/22 06:41:40;;;;;;;5.82;2.47;;;;;;;30.12;20.07;101417.34;5004671;28;20054;-78
2022/06/22 06:44:13;;;;;;;8.50;2.72;;;;;;;29.74;20.52;101419.06;4998408;28;20145;-77
2022/06/22 06:46:44;;;;;;;5.72;2.50;;;;;;;29.78;20.37;101417.69;5018168;28;20042;-77
2022/06/22 06:49:29;;;;;;;9.38;2.42;;;;;;;28.83;21.27;101417.56;5015551;28;20058;-77
2022/06/22 06:51:57;;;;;;;7.03;3.28;;;;;;;28.97;21.13;101414.19;4998468;28;20045;-76
2022/06/22 06:54:33;;;;;;;5.57;2.67;;;;;;;28.31;21.67;101413.31;5021868;28;20037;-76
2022/06/22 06:57:11;;;;;;;7.35;2.63;;;;;;;28.30;21.59;101419.69;5004070;28;20061;-75
2022/06/22 06:59:39;;;;;;;5.85;1.98;;;;;;;29.34;21.25;101423.56;5003656;28;20049;-77
2022/06/22 07:02:15;;;;;;;5.72;1.92;;;;;;;30.31;19.79;101418.75;4985435;28;20042;-77
2022/06/22 07:04:40;;;;;;;7.63;2.78;;;;;;;29.13;21.08;101413.34;4988857;28;20117;-78
2022/06/22 07:07:21;;;;;;;6.78;2.90;;;;;;;29.31;21.50;101418.53;5000144;28;20792;-78
2022/06/22 07:09:50;;;;;;;9.73;3.67;;;;;;;29.55;20.68;101409.50;5003018;28;20492;-77
2022/06/22 07:12:43;;;;;;;6.53;2.60;;;;;;;29.94;19.41;101417.59;5003497;28;20049;-80
2022/06/22 07:15:16;;;;;;;7.38;2.20;;;;;;;30.04;18.52;101430.81;5017256;28;20038;-76
2022/06/22 07:17:45;;;;;;;5.20;1.83;;;;;;;30.13;20.14;101431.66;4987577;28;20100;-79
2022/06/22 07:20:13;;;;;;;3.80;2.13;;;;;;;29.39;19.49;101429.25;5001634;28;20038;-79
2022/06/22 07:22:45;;;;;;;7.07;1.77;;;;;;;29.76;19.05;101427.78;5001215;28;20491;-80
2022/06/22 07:25:15;;;;;;;4.72;1.33;;;;;;;30.88;18.17;101427.41;5005838;28;20633;-79
2022/06/22 07:27:52;;;;;;;7.35;2.00;;;;;;;31.17;18.68;101427.47;5008420;28;20045;-78
2022/06/22 07:30:18;;;;;;;3.75;1.00;;;;;;;31.08;17.83;101423.16;5010033;28;20030;-78
2022/06/22 07:32:51;;;;;;;2.90;2.28;;;;;;;31.18;17.90;101421.06;5004109;28;20125;-80
2022/06/22 07:35:42;;;;;;;6.18;2.35;;;;;;;31.91;16.83;101418.47;5007987;28;20056;-78
2022/06/22 07:38:29;;;;;;;4.93;1.65;;;;;;;33.58;16.57;101426.13;5003926;28;20459;-77
2022/06/22 07:43:42;;;;;;;3.92;1.80;;;;;;;32.54;16.19;101423.31;5007531;28;20552;-78
2022/06/22 07:46:13;;;;;;;3.90;1.60;;;;;;;31.88;16.66;101429.66;5010234;28;20034;-78
2022/06/22 07:48:45;;;;;;;8.07;1.98;;;;;;;30.79;17.75;101423.94;5011906;28;20301;-77
2022/06/22 07:51:22;;;;;;;8.00;2.47;;;;;;;31.75;16.97;101429.50;4995763;28;20030;-78
2022/06/22 07:54:20;;;;;;;8.80;2.03;;;;;;;29.58;18.52;101441.47;5014705;28;20056;-75
2022/06/22 07:56:58;;;;;;;7.68;1.92;;;;;;;29.42;18.95;101437.00;5008863;28;20057;-77
2022/06/22 07:59:32;;;;;;;6.55;2.13;;;;;;;30.51;18.12;101434.41;5011434;28;20380;-78
2022/06/22 08:02:02;;;;;;;6.18;2.17;;;;;;;31.13;17.94;101436.94;5010480;28;20037;-78
2022/06/22 08:04:31;;;;;;;;;;;;;;;30.69;17.29;101442.22;5023608;28;20034;-74
2022/06/22 08:07:24;;;;;;;5.32;1.75;;;;;;;31.12;16.80;101432.56;5018734;28;19921;-77
2022/06/22 08:10:15;;;;;;;7.68;1.70;;;;;;;30.36;16.55;101439.78;5008447;28;20033;-76
2022/06/22 08:12:57;;;;;;;5.10;1.52;;;;;;;29.64;16.77;101437.25;5012775;28;20065;-78
2022/06/22 08:15:23;;;;;;;2.25;1.67;;;;;;;28.99;18.41;101446.28;5008252;28;20034;-79
2022/06/22 08:17:55;;;;;;;3.60;1.05;;;;;;;31.03;17.35;101441.78;5005770;28;20049;-77
2022/06/22 08:20:26;;;;;;;4.20;1.48;;;;;;;32.02;15.66;101433.38;4990445;28;20038;-78
2022/06/22 08:22:53;;;;;;;4.45;1.17;;;;;;;32.27;15.46;101441.94;4994537;28;20038;-76
2022/06/22 08:25:21;;;;;;;3.35;1.13;;;;;;;31.62;16.13;101452.63;5011745;28;20049;-77
2022/06/22 08:27:47;;;;;;;2.55;0.98;;;;;;;31.62;16.12;101451.78;5005670;28;20133;-79
2022/06/22 08:30:15;;;;;;;4.97;1.92;;;;;;;31.50;15.57;101443.31;5007056;28;20531;-77
2022/06/22 08:33:06;;;;;;;4.10;2.17;;;;;;;30.94;16.51;101442.88;4985736;28;20038;-79
2022/06/22 08:35:36;;;;;;;3.03;1.50;;;;;;;30.69;16.36;101448.47;5007462;28;20037;-79
2022/06/22 08:38:10;;;;;;;8.82;1.83;;;;;;;30.91;16.78;101454.88;4966034;28;20045;-81
2022/06/22 08:40:42;;;;;;;3.65;1.60;;;;;;;30.29;17.92;101452.31;4998553;28;20042;-76
2022/06/22 08:43:33;;;;;;;6.57;1.70;;;;;;;29.92;18.31;101454.66;4986549;28;20038;-78
2022/06/22 08:46:25;;;;;;;6.68;2.08;;;;;;;28.67;18.97;101442.63;4996564;28;20033;-79
2022/06/22 08:49:03;;;;;;;5.55;1.60;;;;;;;29.06;19.27;101447.28;4985847;28;20538;-77
2022/06/22 08:51:51;;;;;;;6.32;1.70;;;;;;;29.82;17.11;101450.50;5003668;28;20034;-82
2022/06/22 08:54:36;;;;;;;7.30;1.90;;;;;;;30.56;17.53;101459.03;4998467;28;20035;-81
2022/06/22 08:57:04;;;;;;;3.85;1.80;;;;;;;30.50;17.53;101451.63;5003336;28;20084;-79
2022/06/22 09:00:27;;;;;;;7.00;2.35;;;;;;;30.44;18.06;101460.44;4997926;28;20535;-79
2022/06/22 09:02:57;;;;;;;10.40;3.58;;;;;;;30.30;18.77;101468.28;4964982;28;20099;-81
2022/06/22 09:05:23;;;;;;;5.10;3.63;;;;;;;28.53;21.14;101473.69;5012831;28;20025;-76
2022/06/22 09:08:28;;;;;;;10.52;3.58;;;;;;;29.07;20.67;101468.66;5012900;28;20045;-79
2022/06/22 09:11:37;;;;;;;6.35;2.70;;;;;;;29.27;20.80;101471.03;5012229;28;20068;-77
2022/06/22 09:14:12;;;;;;;6.00;2.40;;;;;;;28.43;21.54;101463.06;5008920;28;20042;-76
2022/06/22 09:16:54;;;;;;;6.57;2.55;;;;;;;28.09;21.62;101476.56;5012013;28;20034;-80
2022/06/22 09:19:38;;;;;;;5.80;2.13;;;;;;;28.72;21.61;101468.00;5001979;28;20523;-79
2022/06/22 09:22:19;;;;;;;8.95;2.72;;;;;;;28.37;20.77;101473.63;4991887;28;20085;-78
2022/06/22 09:25:01;;;;;;;5.97;2.75;;;;;;;27.69;21.95;101478.06;5005603;28;20038;-78
2022/06/22 09:27:41;;;;;;;6.50;2.67;;;;;;;27.84;22.44;101470.25;5009276;28;20042;-81
2022/06/22 09:30:23;;;;;;;6.72;2.22;;;;;;;27.96;22.38;101486.94;5007359;28;20060;-80
2022/06/22 09:33:46;;;;;;;8.07;2.58;;;;;;;28.08;21.57;101464.16;4988667;28;20137;-80
2022/06/22 09:36:18;;;;;;;4.93;2.40;;;;;;;28.44;20.65;101472.00;4951695;28;20042;-79
2022/06/22 09:38:46;;;;;;;;;;;;;;;27.43;22.37;101480.75;4984441;28;20051;-79
2022/06/22 09:41:39;;;;;;;7.47;2.20;;;;;;;26.79;23.71;101466.69;4964177;28;19914;-78
2022/06/22 09:44:30;;;;;;;9.63;3.53;;;;;;;26.16;24.51;101464.88;5000078;28;20053;-80
2022/06/22 09:47:29;;;;;;;5.05;3.30;;;;;;;25.95;24.53;101462.41;4973043;28;20578;-80
2022/06/22 09:50:29;;;;;;;7.70;2.60;;;;;;;25.32;25.05;101466.53;4990176;28;20116;-79
2022/06/22 09:53:37;;;;;;;9.80;2.65;;;;;;;25.03;25.44;101462.09;4972576;28;20048;-78
2022/06/22 09:56:33;;;;;;;6.18;3.50;;;;;;;24.97;25.42;101462.69;4949384;28;20037;-78
2022/06/22 09:59:08;;;;;;;7.22;3.10;;;;;;;24.44;26.71;101463.06;5013391;28;20376;-78
2022/06/22 10:01:51;;;;;;;4.82;2.42;;;;;;;24.08;28.26;101470.69;5002175;28;20093;-77
2022/06/22 10:04:32;;;;;;;7.28;3.22;;;;;;;23.59;27.20;101472.28;5012951;28;20048;-77
2022/06/22 10:07:03;;;;;;;3.97;2.03;;;;;;;23.80;28.75;101462.38;4999561;28;20042;-78
2022/06/22 10:09:43;;;;;;;;;;;;;;;23.75;29.06;101459.28;4999452;28;20289;-77
2022/06/22 10:12:46;;;;;;;7.50;2.97;;;;;;;23.42;27.79;101468.38;5000687;28;19921;-80
2022/06/22 10:15:53;;;;;;;18.27;3.08;;;;;;;23.62;27.89;101469.34;5003263;28;20041;-80
2022/06/22 10:18:44;;;;;;;5.18;2.58;;;;;;;24.00;27.12;101468.66;4968749;28;20037;-78
2022/06/22 10:21:25;;;;;;;;;;;;;;;24.08;28.47;101465.34;5002154;28;20841;-82
2022/06/22 10:24:26;;;;;;;11.88;2.95;;;;;;;23.86;27.42;101457.53;5014747;28;19923;-76
2022/06/22 10:27:26;;;;;;;7.82;1.70;;;;;;;24.57;24.95;101454.75;5012820;28;20042;-78
2022/06/22 10:30:10;;;;;;;8.85;2.75;;;;;;;24.15;26.26;101447.78;5001134;28;20029;-76
2022/06/22 10:32:38;;;;;;;6.03;1.98;;;;;;;24.25;26.87;101453.13;5001247;28;20050;-76
2022/06/22 10:35:22;;;;;;;6.70;1.65;;;;;;;24.51;26.06;101456.16;4998226;28;20065;-78
2022/06/22 10:38:18;;;;;;;6.20;1.92;;;;;;;23.91;25.98;101447.28;5013646;28;20089;-74
2022/06/22 10:46:30;;;;;;;6.80;1.95;;;;;;;24.89;25.46;101448.28;4997162;28;20037;-77
2022/06/22 10:49:13;;;;;;;7.75;2.30;;;;;;;25.21;25.74;101453.34;5001196;28;20042;-78
2022/06/22 10:52:07;;;;;;;5.78;2.00;;;;;;;24.95;24.63;101445.91;4999816;28;20141;-77
2022/06/22 10:54:53;;;;;;;6.07;1.58;;;;;;;24.48;24.44;101445.78;5011601;28;20050;-79
2022/06/22 10:57:50;;;;;;;7.50;1.80;;;;;;;24.53;24.22;101448.84;4997083;28;20046;-78
2022/06/22 11:00:25;;;;;;;3.92;1.60;;;;;;;24.78;24.33;101449.28;4979691;28;20055;-77
2022/06/22 11:03:19;;;;;;;6.13;2.25;;;;;;;24.65;23.59;101453.06;5004887;28;20054;-78
2022/06/22 11:06:16;;;;;;;5.07;1.90;;;;;;;24.97;24.58;101454.66;5021309;28;20046;-79
2022/06/22 11:08:41;;;;;;;8.85;2.00;;;;;;;24.60;25.06;101443.81;5003666;28;20045;-75
2022/06/22 11:11:19;;;;;;;4.53;1.75;;;;;;;24.49;25.12;101450.13;5005715;28;20033;-76
2022/06/22 11:14:18;;;;;;;7.18;1.85;;;;;;;25.25;24.55;101452.91;5003981;28;20127;-79
2022/06/22 11:16:56;;;;;;;3.95;1.33;;;;;;;24.76;26.05;101452.09;4981938;28;20042;-79
2022/06/22 11:19:22;;;;;;;5.60;1.35;;;;;;;25.10;23.57;101459.69;5005960;28;20327;-79
2022/06/22 11:22:12;;;;;;;9.18;2.03;;;;;;;25.10;24.50;101461.53;4988938;28;20480;-77
2022/06/22 11:24:52;;;;;;;8.55;1.77;;;;;;;24.46;24.26;101455.75;5020105;28;20064;-78
2022/06/22 11:30:51;;;;;;;11.32;2.20;;;;;;;25.28;25.49;101454.44;5018914;28;20030;-77
2022/06/22 11:33:29;;;;;;;7.72;1.40;;;;;;;25.61;24.39;101446.91;5003808;28;20325;-78
2022/06/22 11:36:46;;;;;;;6.38;2.28;;;;;;;25.40;24.44;101442.59;5021599;28;20029;-79
2022/06/22 11:39:34;;;;;;;8.53;1.97;;;;;;;24.28;26.23;101449.34;5017006;28;20112;-76
2022/06/22 11:42:44;;;;;;;5.93;1.58;;;;;;;23.58;27.23;101452.72;4993721;28;20097;-75
2022/06/22 11:48:34;;;;;;;7.35;1.73;;;;;;;24.37;27.09;101438.69;5018928;28;20058;-76
2022/06/22 11:51:44;;;;;;;8.45;2.08;;;;;;;24.48;27.31;101439.56;5020149;28;20207;-75
2022/06/22 11:55:19;;;;;;;6.72;1.75;;;;;;;24.87;27.09;101440.41;4992777;28;20046;-76
2022/06/22 11:58:11;;;;;;;6.55;2.00;;;;;;;25.38;27.24;101441.88;4978339;28;20065;-76
2022/06/22 12:00:43;;;;;;;7.25;2.25;;;;;;;25.01;27.32;101442.66;5019185;28;20109;-76
2022/06/22 12:04:09;;;;;;;10.15;2.83;;;;;;;25.42;26.70;101440.63;5010004;28;20064;-76
2022/06/22 12:06:55;;;;;;;5.72;1.83;;;;;;;24.62;26.64;101436.50;4963725;28;20050;-78
2022/06/22 12:09:49;;;;;;;5.53;2.35;;;;;;;23.68;28.18;101427.91;5019230;28;20053;-77
2022/06/22 12:12:46;;;;;;;6.18;1.83;;;;;;;23.97;28.07;101420.91;5010112;28;20512;-79
2022/06/22 12:15:40;;;;;;;8.00;2.17;;;;;;;24.73;27.81;101424.81;4987546;28;20500;-77
2022/06/22 12:18:18;;;;;;;8.50;3.20;;;;;;;25.83;26.41;101418.91;5000174;28;20046;-77
2022/06/22 12:20:57;;;;;;;7.93;2.63;;;;;;;26.18;24.84;101415.50;4998324;28;20088;-78
2022/06/22 12:23:29;;;;;;;7.35;2.08;;;;;;;25.09;26.22;101427.75;5017236;28;20045;-78
2022/06/22 12:26:12;;;;;;;5.35;1.38;;;;;;;25.57;26.01;101421.44;5017947;28;20041;-79
2022/06/22 12:29:09;;;;;;;2.13;1.35;;;;;;;26.02;25.02;101425.97;4999161;28;20510;-77
2022/06/22 12:31:42;;;;;;;5.10;1.90;;;;;;;26.21;24.50;101415.19;5017302;28;20038;-76
2022/06/22 12:34:20;;;;;;;7.65;1.38;;;;;;;26.16;24.04;101412.13;4996240;28;20049;-76
2022/06/22 12:36:51;;;;;;;8.43;2.00;;;;;;;25.46;24.51;101407.22;5015592;28;20038;-78
2022/06/22 12:39:24;;;;;;;8.40;2.20;;;;;;;26.11;24.72;101410.88;4999679;28;20096;-77
2022/06/22 12:42:08;;;;;;;2.42;1.15;;;;;;;26.44;23.83;101404.00;5014001;28;20108;-76
2022/06/22 12:44:45;;;;;;;8.15;1.10;;;;;;;26.28;25.04;101400.19;5003331;28;20123;-78
2022/06/22 12:47:47;;;;;;;3.50;1.17;;;;;;;26.01;25.16;101403.72;4995232;28;20046;-79
2022/06/22 12:50:44;;;;;;;6.03;2.28;;;;;;;25.92;25.04;101393.09;5016269;28;20697;-77
2022/06/22 12:53:33;;;;;;;4.90;1.25;;;;;;;25.36;26.04;101409.09;5014055;28;20352;-78
2022/06/22 12:56:07;;;;;;;4.53;0.93;;;;;;;24.64;26.48;101403.28;4997313;28;20488;-78
2022/06/22 12:58:48;;;;;;;3.05;1.27;;;;;;;24.80;27.06;101409.91;5001738;28;20050;-78
2022/06/22 13:01:13;;;;;;;6.05;1.88;;;;;;;25.01;27.18;101402.56;5017116;28;20030;-76
2022/06/22 13:03:47;;;;;;;10.80;1.83;;;;;;;25.42;27.05;101403.16;4998865;28;20057;-77
2022/06/22 13:06:12;;;;;;;6.70;1.33;;;;;;;25.62;26.46;101393.25;5010287;28;20041;-78
2022/06/22 13:08:39;;;;;;;7.50;1.63;;;;;;;25.96;25.68;101406.03;4983335;28;20046;-77
2022/06/22 13:11:12;;;;;;;3.65;1.25;;;;;;;26.06;25.47;101400.63;4998528;28;20041;-78
2022/06/22 13:14:05;;;;;;;7.88;1.63;;;;;;;25.87;25.63;101401.56;4958745;28;20045;-77
2022/06/22 13:16:47;;;;;;;4.13;1.10;;;;;;;25.53;26.12;101399.50;5015730;28;20026;-76
2022/06/22 13:19:21;;;;;;;4.30;1.30;;;;;;;25.92;25.55;101395.75;4997164;28;20440;-77
2022/06/22 13:21:54;;;;;;;5.60;1.63;;;;;;;25.98;25.15;101397.84;4981924;28;20049;-76